createdAt,value
2023-10-13T00:00:42.640Z,7.87
2023-10-13T00:03:16.601Z,9.27
2023-10-13T00:05:46.275Z,11.20
2023-10-13T00:08:14.847Z,7.97
2023-10-13T00:10:44.088Z,11.40
2023-10-13T00:13:14.401Z,12.63
2023-10-13T00:15:47.242Z,13.70
2023-10-13T00:18:15.176Z,13.40
2023-10-13T00:20:49.296Z,9.63
2023-10-13T00:23:21.808Z,10.90
2023-10-13T00:25:57.860Z,13.10
2023-10-13T00:28:27.693Z,10.33
2023-10-13T00:31:01.070Z,12.47
2023-10-13T00:33:28.998Z,12.90
2023-10-13T00:35:59.035Z,9.77
2023-10-13T00:38:28.564Z,12.03
2023-10-13T00:40:56.694Z,10.93
2023-10-13T00:43:41.744Z,10.63
2023-10-13T00:46:13.821Z,12.93
2023-10-13T00:48:53.060Z,9.33
2023-10-13T00:51:33.654Z,12.53
2023-10-13T00:54:09.273Z,10.40
2023-10-13T00:56:42.049Z,11.13
2023-10-13T00:59:11.165Z,12.03
2023-10-13T01:01:42.268Z,12.63
2023-10-13T01:04:10.000Z,12.17
2023-10-13T01:06:38.968Z,11.87
2023-10-13T01:09:14.936Z,12.60
2023-10-13T01:11:45.359Z,13.27
2023-10-13T01:14:12.428Z,12.33
2023-10-13T01:16:44.888Z,14.67
2023-10-13T01:19:13.558Z,19.03
2023-10-13T01:21:42.702Z,18.93
2023-10-13T01:24:12.610Z,15.67
2023-10-13T01:26:41.503Z,11.50
2023-10-13T01:29:15.661Z,15.43
2023-10-13T01:31:49.861Z,10.90
2023-10-13T01:34:23.139Z,11.77
2023-10-13T01:36:52.771Z,10.27
2023-10-13T01:39:22.139Z,10.43
2023-10-13T01:41:56.559Z,16.53
2023-10-13T01:44:25.120Z,13.23
2023-10-13T01:46:52.545Z,10.30
2023-10-13T01:49:23.052Z,12.53
2023-10-13T01:51:50.152Z,13.70
2023-10-13T01:54:18.628Z,14.57
2023-10-13T01:56:46.709Z,16.50
2023-10-13T01:59:14.606Z,15.77
2023-10-13T02:01:42.682Z,15.33
2023-10-13T02:04:11.782Z,12.10
2023-10-13T02:06:38.754Z,18.30
2023-10-13T02:09:14.521Z,12.77
2023-10-13T02:11:42.797Z,12.23
2023-10-13T02:14:13.323Z,14.70
2023-10-13T02:16:40.504Z,12.33
2023-10-13T02:19:09.838Z,15.23
2023-10-13T02:21:40.653Z,8.23
2023-10-13T02:24:14.068Z,15.93
2023-10-13T02:26:41.475Z,15.47
2023-10-13T02:29:09.417Z,13.07
2023-10-13T02:31:38.806Z,14.10
2023-10-13T02:34:09.623Z,14.17
2023-10-13T02:36:37.419Z,13.60
2023-10-13T02:39:08.619Z,13.63
2023-10-13T02:41:38.289Z,11.63
2023-10-13T02:44:07.925Z,12.40
2023-10-13T02:46:37.104Z,10.60
2023-10-13T02:49:12.031Z,10.37
2023-10-13T02:51:43.174Z,13.43
2023-10-13T02:54:12.480Z,10.77
2023-10-13T02:56:49.113Z,14.67
2023-10-13T02:59:21.057Z,14.23
2023-10-13T03:01:48.143Z,11.10
2023-10-13T03:04:24.569Z,18.50
2023-10-13T03:06:51.278Z,15.27
2023-10-13T03:09:19.953Z,14.47
2023-10-13T03:11:49.600Z,13.33
2023-10-13T03:14:26.987Z,11.33
2023-10-13T03:16:55.220Z,12.33
2023-10-13T03:19:33.820Z,12.20
2023-10-13T03:22:08.577Z,12.60
2023-10-13T03:24:36.174Z,11.53
2023-10-13T03:27:10.596Z,10.13
2023-10-13T03:29:39.974Z,15.97
2023-10-13T03:32:13.034Z,12.33
2023-10-13T03:34:54.450Z,12.10
2023-10-13T03:37:38.711Z,11.37
2023-10-13T03:40:17.299Z,12.50
2023-10-13T03:42:58.824Z,11.53
2023-10-13T03:45:26.542Z,11.33
2023-10-13T03:47:54.788Z,16.00
2023-10-13T03:50:30.714Z,14.57
2023-10-13T03:52:59.251Z,15.53
2023-10-13T03:55:28.398Z,9.50
2023-10-13T03:57:56.332Z,12.23
2023-10-13T04:00:27.727Z,14.70
2023-10-13T04:03:07.789Z,15.20
2023-10-13T04:05:45.392Z,12.43
2023-10-13T04:08:31.045Z,11.47
2023-10-13T04:11:17.439Z,11.93
2023-10-13T04:14:02.844Z,12.50
2023-10-13T04:16:37.345Z,13.63
2023-10-13T04:19:17.034Z,10.77
2023-10-13T04:21:58.717Z,16.13
2023-10-13T04:24:45.988Z,11.47
2023-10-13T04:27:45.523Z,14.13
2023-10-13T04:30:20.675Z,14.17
2023-10-13T04:33:07.313Z,14.73
2023-10-13T04:35:43.863Z,13.37
2023-10-13T04:38:20.677Z,14.27
2023-10-13T04:41:00.212Z,11.10
2023-10-13T04:43:56.620Z,9.13
2023-10-13T04:46:37.112Z,11.33
2023-10-13T04:49:11.277Z,12.90
2023-10-13T04:51:54.511Z,12.70
2023-10-13T04:54:35.034Z,14.67
2023-10-13T04:57:20.433Z,13.30
2023-10-13T05:00:02.032Z,11.93
2023-10-13T05:02:56.679Z,9.33
2023-10-13T05:05:46.502Z,12.03
2023-10-13T05:08:32.103Z,19.40
2023-10-13T05:11:31.184Z,13.30
2023-10-13T05:14:16.280Z,18.23
2023-10-13T05:17:01.864Z,12.03
2023-10-13T05:19:47.115Z,10.23
2023-10-13T05:22:32.599Z,9.97
2023-10-13T05:25:17.943Z,8.93
2023-10-13T05:28:07.196Z,10.43
2023-10-13T05:30:52.844Z,13.30
2023-10-13T05:33:38.125Z,11.17
2023-10-13T05:36:30.004Z,12.90
2023-10-13T05:39:15.370Z,11.40
2023-10-13T05:42:00.694Z,10.87
2023-10-13T05:44:38.415Z,12.47
2023-10-13T05:47:45.519Z,12.70
2023-10-13T05:50:30.223Z,14.03
2023-10-13T05:53:15.588Z,10.23
2023-10-13T05:56:00.934Z,16.10
2023-10-13T05:58:46.385Z,14.20
2023-10-13T06:01:33.008Z,11.60
2023-10-13T06:04:18.683Z,15.13
2023-10-13T06:07:04.328Z,11.00
2023-10-13T06:09:54.978Z,10.07
2023-10-13T06:12:40.183Z,14.13
2023-10-13T06:15:25.978Z,15.73
2023-10-13T06:18:14.910Z,16.10
2023-10-13T06:21:00.989Z,9.87
2023-10-13T06:23:46.367Z,12.63
2023-10-13T06:26:43.287Z,11.20
2023-10-13T06:29:10.910Z,18.10
2023-10-13T06:31:38.702Z,14.23
2023-10-13T06:34:07.776Z,10.10
2023-10-13T06:36:36.546Z,11.30
2023-10-13T06:39:18.513Z,11.53
2023-10-13T06:41:46.225Z,16.73
2023-10-13T06:44:17.349Z,14.13
2023-10-13T06:46:44.990Z,13.00
2023-10-13T06:49:15.246Z,11.70
2023-10-13T06:51:43.162Z,11.10
2023-10-13T06:54:20.926Z,10.93
2023-10-13T06:56:52.605Z,10.57
2023-10-13T06:59:20.551Z,11.60
2023-10-13T07:01:49.640Z,11.90
2023-10-13T07:04:19.547Z,7.87
2023-10-13T07:06:50.053Z,7.93
2023-10-13T07:09:40.587Z,8.57
2023-10-13T07:12:17.277Z,13.90
2023-10-13T07:14:53.180Z,7.37
2023-10-13T07:17:25.708Z,8.80
2023-10-13T07:19:56.452Z,9.20
2023-10-13T07:22:26.980Z,15.20
2023-10-13T07:24:54.760Z,10.53
2023-10-13T07:27:26.519Z,11.20
2023-10-13T07:30:14.291Z,10.23
2023-10-13T07:32:47.822Z,12.10
2023-10-13T07:35:21.521Z,15.77
2023-10-13T07:37:53.200Z,17.10
2023-10-13T07:40:40.814Z,13.13
2023-10-13T07:43:11.660Z,11.63
2023-10-13T07:45:39.828Z,10.53
2023-10-13T07:48:13.352Z,8.10
2023-10-13T07:50:42.743Z,12.43
2023-10-13T07:53:23.693Z,11.00
2023-10-13T07:55:56.550Z,11.70
2023-10-13T07:58:26.510Z,7.87
2023-10-13T08:01:07.763Z,10.60
2023-10-13T08:03:48.128Z,8.87
2023-10-13T08:06:22.359Z,9.60
2023-10-13T08:08:55.333Z,10.40
2023-10-13T08:11:35.222Z,11.30
2023-10-13T08:14:22.367Z,11.33
2023-10-13T08:17:00.918Z,9.53
2023-10-13T08:19:33.387Z,10.67
2023-10-13T08:22:24.612Z,10.30
2023-10-13T08:25:16.266Z,9.33
2023-10-13T08:28:26.352Z,6.83
2023-10-13T08:30:54.946Z,10.43
2023-10-13T08:33:26.047Z,9.37
2023-10-13T08:36:11.653Z,7.30
2023-10-13T08:38:52.247Z,12.50
2023-10-13T08:41:32.659Z,13.07
2023-10-13T08:44:05.697Z,13.37
2023-10-13T08:46:53.008Z,9.50
2023-10-13T08:49:24.428Z,6.67
2023-10-13T08:52:06.397Z,9.63
2023-10-13T08:54:40.345Z,7.43
2023-10-13T08:57:22.011Z,11.63
2023-10-13T08:59:56.359Z,8.93
2023-10-13T09:02:44.103Z,8.13
2023-10-13T09:05:32.215Z,10.70
2023-10-13T09:08:10.331Z,7.33
2023-10-13T09:11:01.388Z,8.40
2023-10-13T09:13:44.917Z,8.87
2023-10-13T09:16:18.757Z,10.93
2023-10-13T09:18:48.582Z,8.60
2023-10-13T09:21:46.665Z,8.03
2023-10-13T09:24:34.187Z,8.30
2023-10-13T09:27:06.046Z,8.17
2023-10-13T09:29:39.971Z,10.03
2023-10-13T09:32:12.784Z,7.60
2023-10-13T09:34:42.068Z,8.97
2023-10-13T09:37:12.477Z,9.63
2023-10-13T09:39:45.720Z,8.40
2023-10-13T09:42:18.578Z,9.17
2023-10-13T09:44:52.418Z,6.37
2023-10-13T09:47:30.964Z,7.37
2023-10-13T09:50:04.979Z,8.50
2023-10-13T09:52:33.316Z,8.70
2023-10-13T09:55:19.510Z,11.70
2023-10-13T09:57:58.654Z,9.77
2023-10-13T10:00:44.091Z,7.60
2023-10-13T10:03:30.548Z,7.07
2023-10-13T10:06:05.704Z,9.77
2023-10-13T10:08:35.477Z,11.33
2023-10-13T10:11:09.734Z,15.00
2023-10-13T10:13:44.924Z,11.87
2023-10-13T10:16:15.743Z,7.73
2023-10-13T10:18:43.948Z,10.80
2023-10-13T10:21:12.289Z,7.53
2023-10-13T10:23:41.195Z,9.13
2023-10-13T10:26:12.730Z,10.63
2023-10-13T10:28:43.177Z,7.60
2023-10-13T10:31:13.888Z,12.77
2023-10-13T10:33:42.457Z,8.90
2023-10-13T10:36:15.230Z,9.37
2023-10-13T10:38:55.578Z,8.43
2023-10-13T10:41:31.140Z,8.10
2023-10-13T10:44:03.976Z,9.97
2023-10-13T10:46:39.381Z,6.80
2023-10-13T10:49:09.558Z,7.63
2023-10-13T10:51:44.719Z,7.00
2023-10-13T10:54:21.183Z,5.40
2023-10-13T10:56:53.810Z,6.80
2023-10-13T10:59:26.171Z,7.63
2023-10-13T11:01:53.926Z,12.10
2023-10-13T11:04:26.007Z,5.93
2023-10-13T11:06:56.527Z,7.03
2023-10-13T11:09:37.984Z,7.33
2023-10-13T11:12:25.111Z,7.87
2023-10-13T11:15:13.686Z,7.20
2023-10-13T11:17:49.539Z,6.07
2023-10-13T11:20:26.733Z,9.73
2023-10-13T11:22:54.779Z,7.17
2023-10-13T11:25:31.292Z,7.30
2023-10-13T11:28:00.617Z,6.67
2023-10-13T11:30:43.127Z,7.73
2023-10-13T11:33:12.387Z,8.93
2023-10-13T11:36:02.302Z,9.23
2023-10-13T11:38:36.902Z,8.13
2023-10-13T11:41:12.896Z,6.90
2023-10-13T11:44:13.653Z,7.37
2023-10-13T11:47:03.223Z,9.57
2023-10-13T11:49:36.009Z,5.93
2023-10-13T11:52:18.875Z,6.65
2023-10-13T11:54:48.355Z,5.88
2023-10-13T11:57:20.272Z,8.57
2023-10-13T11:59:54.396Z,10.13
2023-10-13T12:02:41.806Z,7.97
2023-10-13T12:05:28.574Z,10.75
2023-10-13T12:08:04.813Z,8.27
2023-10-13T12:10:40.159Z,6.47
2023-10-13T12:13:09.420Z,8.63
2023-10-13T12:15:49.667Z,5.95
2023-10-13T12:18:24.625Z,11.52
2023-10-13T12:20:52.621Z,6.55
2023-10-13T12:23:22.008Z,9.07
2023-10-13T12:26:06.779Z,10.75
2023-10-13T12:28:41.738Z,4.72
2023-10-13T12:31:12.758Z,7.72
2023-10-13T12:33:42.519Z,5.53
2023-10-13T12:36:27.995Z,7.00
2023-10-13T12:39:13.061Z,7.57
2023-10-13T12:41:58.550Z,6.43
2023-10-13T12:44:43.926Z,7.28
2023-10-13T12:47:29.548Z,9.18
2023-10-13T12:50:08.522Z,12.13
2023-10-13T12:52:37.284Z,6.97
2023-10-13T12:55:10.959Z,8.75
2023-10-13T12:57:45.257Z,8.38
2023-10-13T13:00:22.376Z,6.82
2023-10-13T13:02:54.167Z,7.07
2023-10-13T13:05:29.504Z,13.63
2023-10-13T13:08:01.608Z,6.13
2023-10-13T13:10:37.479Z,7.85
2023-10-13T13:13:06.501Z,13.40
2023-10-13T13:15:34.381Z,11.82
2023-10-13T13:18:11.419Z,8.38
2023-10-13T13:20:54.480Z,8.55
2023-10-13T13:23:27.141Z,6.18
2023-10-13T13:25:57.958Z,9.35
2023-10-13T13:28:31.067Z,10.00
2023-10-13T13:30:59.854Z,9.82
2023-10-13T13:33:27.896Z,11.10
2023-10-13T13:36:00.746Z,11.60
2023-10-13T13:38:33.583Z,9.70
2023-10-13T13:41:03.215Z,11.32
2023-10-13T13:43:39.492Z,7.88
2023-10-13T13:46:10.421Z,6.68
2023-10-13T13:48:38.886Z,7.15
2023-10-13T13:51:15.270Z,7.93
2023-10-13T13:53:46.431Z,7.88
2023-10-13T13:56:17.625Z,7.07
2023-10-13T13:58:46.327Z,9.57
2023-10-13T14:01:15.690Z,5.85
2023-10-13T14:03:51.447Z,5.00
2023-10-13T14:06:24.364Z,7.50
2023-10-13T14:08:55.892Z,7.55
2023-10-13T14:11:44.636Z,10.20
2023-10-13T14:14:30.119Z,9.27
2023-10-13T14:17:04.596Z,8.40
2023-10-13T14:19:33.271Z,12.60
2023-10-13T14:22:07.495Z,6.15
2023-10-13T14:24:36.966Z,6.95
2023-10-13T14:27:10.583Z,5.90
2023-10-13T14:29:41.310Z,9.02
2023-10-13T14:32:13.251Z,5.00
2023-10-13T14:34:42.779Z,8.27
2023-10-13T14:37:13.794Z,8.57
2023-10-13T14:39:41.651Z,8.32
2023-10-13T14:42:09.473Z,8.80
2023-10-13T14:44:38.263Z,10.32
2023-10-13T14:47:07.405Z,7.60
2023-10-13T14:49:36.410Z,6.97
2023-10-13T14:52:04.258Z,7.72
2023-10-13T14:54:35.915Z,6.72
2023-10-13T14:57:04.327Z,8.48
2023-10-13T14:59:34.204Z,6.10
2023-10-13T15:02:03.896Z,6.30
2023-10-13T15:04:34.074Z,7.28
2023-10-13T15:07:03.329Z,7.93
2023-10-13T15:09:31.163Z,9.77
2023-10-13T15:12:00.257Z,6.53
2023-10-13T15:14:27.903Z,9.52
2023-10-13T15:16:56.411Z,6.53
2023-10-13T15:19:24.684Z,7.25
2023-10-13T15:21:54.010Z,12.23
2023-10-13T15:24:26.968Z,12.75
2023-10-13T15:27:03.670Z,7.03
2023-10-13T15:29:38.335Z,8.30
2023-10-13T15:32:27.508Z,8.63
2023-10-13T15:34:55.777Z,9.20
2023-10-13T15:37:26.342Z,7.18
2023-10-13T15:39:54.662Z,7.18
2023-10-13T15:42:22.769Z,8.82
2023-10-13T15:44:52.105Z,7.10
2023-10-13T15:48:08.054Z,8.27
2023-10-13T15:50:07.969Z,8.13
2023-10-13T15:52:35.753Z,6.77
2023-10-13T15:55:05.365Z,8.37
2023-10-13T15:57:37.484Z,4.83
2023-10-13T16:00:24.100Z,6.37
2023-10-13T16:02:53.465Z,8.47
2023-10-13T16:05:23.888Z,9.13
2023-10-13T16:07:53.465Z,8.23
2023-10-13T16:10:23.708Z,5.50
2023-10-13T16:12:51.593Z,10.63
2023-10-13T16:15:22.500Z,5.60
2023-10-13T16:17:50.309Z,6.23
2023-10-13T16:20:18.188Z,8.77
2023-10-13T16:22:46.960Z,9.00
2023-10-13T16:25:19.747Z,7.60
2023-10-13T16:27:50.294Z,6.27
2023-10-13T16:30:20.495Z,9.20
2023-10-13T16:32:50.484Z,5.00
2023-10-13T16:35:19.534Z,8.37
2023-10-13T16:37:48.022Z,9.20
2023-10-13T16:40:20.438Z,9.97
2023-10-13T16:42:48.891Z,9.73
2023-10-13T16:45:20.556Z,10.63
2023-10-13T16:47:50.509Z,10.67
2023-10-13T16:50:18.922Z,7.60
2023-10-13T16:52:48.163Z,10.47
2023-10-13T16:55:18.675Z,10.03
2023-10-13T16:57:48.881Z,6.30
2023-10-13T17:00:17.868Z,8.10
2023-10-13T17:02:47.022Z,5.97
2023-10-13T17:05:19.076Z,6.93
2023-10-13T17:07:48.133Z,6.60
2023-10-13T17:10:16.634Z,9.20
2023-10-13T17:12:44.741Z,7.40
2023-10-13T17:15:20.395Z,7.40
2023-10-13T17:17:48.889Z,6.63
2023-10-13T17:20:18.744Z,6.10
2023-10-13T17:22:47.525Z,6.60
2023-10-13T17:25:15.767Z,5.20
2023-10-13T17:27:43.854Z,5.40
2023-10-13T17:30:12.758Z,8.23
2023-10-13T17:32:40.797Z,8.23
2023-10-13T17:35:13.040Z,5.50
2023-10-13T17:37:44.456Z,5.40
2023-10-13T17:40:16.572Z,6.33
2023-10-13T17:42:48.343Z,8.47
2023-10-13T17:45:16.161Z,6.27
2023-10-13T17:47:44.723Z,4.20
2023-10-13T17:50:14.321Z,5.30
2023-10-13T17:52:43.484Z,3.33
2023-10-13T17:55:12.284Z,5.20
2023-10-13T17:57:41.435Z,4.23
2023-10-13T18:00:15.479Z,7.27
2023-10-13T18:02:43.777Z,5.20
2023-10-13T18:05:12.312Z,5.40
2023-10-13T18:07:41.249Z,4.90
2023-10-13T18:10:13.735Z,8.97
2023-10-13T18:12:41.705Z,6.17
2023-10-13T18:15:10.789Z,6.20
2023-10-13T18:17:40.651Z,4.40
2023-10-13T18:20:11.378Z,3.90
2023-10-13T18:22:39.274Z,7.03
2023-10-13T18:25:13.234Z,7.03
2023-10-13T18:27:43.900Z,5.37
2023-10-13T18:30:13.463Z,6.17
2023-10-13T18:32:42.101Z,8.43
2023-10-13T18:35:12.633Z,7.90
2023-10-13T18:37:42.507Z,5.83
2023-10-13T18:40:13.750Z,5.30
2023-10-13T18:42:44.114Z,7.90
2023-10-13T18:45:12.828Z,5.50
2023-10-13T18:47:41.177Z,6.20
2023-10-13T18:50:09.033Z,3.73
2023-10-13T18:52:36.845Z,5.80
2023-10-13T18:55:06.463Z,4.33
2023-10-13T18:57:34.325Z,9.77
2023-10-13T19:00:05.001Z,6.63
2023-10-13T19:02:34.569Z,5.43
2023-10-13T19:05:02.878Z,3.10
2023-10-13T19:07:32.092Z,6.00
2023-10-13T19:09:59.801Z,5.77
2023-10-13T19:12:27.510Z,5.53
2023-10-13T19:14:55.964Z,4.90
2023-10-13T19:17:25.483Z,6.07
2023-10-13T19:19:53.128Z,6.50
2023-10-13T19:22:20.741Z,5.70
2023-10-13T19:24:48.813Z,7.73
2023-10-13T19:27:16.567Z,7.80
2023-10-13T19:29:44.188Z,7.37
2023-10-13T19:32:11.871Z,7.17
2023-10-13T19:34:43.112Z,5.53
2023-10-13T19:37:10.922Z,5.33
2023-10-13T19:39:43.539Z,4.47
2023-10-13T19:42:11.683Z,7.37
2023-10-13T19:44:41.312Z,6.10
2023-10-13T19:47:09.925Z,6.47
2023-10-13T19:49:38.848Z,7.40
2023-10-13T19:52:07.856Z,7.73
2023-10-13T19:54:35.655Z,7.33
2023-10-13T19:57:05.265Z,4.77
2023-10-13T19:59:32.975Z,7.00
2023-10-13T20:02:00.649Z,6.30
2023-10-13T20:04:28.417Z,6.33
2023-10-13T20:06:56.989Z,6.70
2023-10-13T20:09:26.268Z,10.67
2023-10-13T20:11:53.905Z,13.57
2023-10-13T20:14:23.024Z,4.47
2023-10-13T20:16:51.186Z,5.57
2023-10-13T20:19:19.423Z,9.87
2023-10-13T20:21:48.051Z,6.00
2023-10-13T20:24:16.796Z,6.50
2023-10-13T20:26:46.861Z,6.17
2023-10-13T20:29:17.955Z,8.67
2023-10-13T20:31:48.529Z,6.87
2023-10-13T20:34:16.725Z,6.23
2023-10-13T20:36:44.431Z,6.70
2023-10-13T20:39:24.735Z,7.23
2023-10-13T20:41:53.957Z,8.47
2023-10-13T20:44:27.549Z,5.27
2023-10-13T20:46:57.699Z,7.77
2023-10-13T20:49:27.691Z,9.00
2023-10-13T20:51:55.469Z,9.63
2023-10-13T20:54:23.422Z,9.47
2023-10-13T20:56:51.082Z,5.00
2023-10-13T20:59:20.226Z,6.77
2023-10-13T21:01:48.924Z,7.47
2023-10-13T21:04:17.252Z,7.93
2023-10-13T21:06:45.844Z,4.63
2023-10-13T21:09:20.819Z,6.03
2023-10-13T21:11:49.838Z,9.83
2023-10-13T21:14:17.618Z,6.57
2023-10-13T21:16:46.616Z,9.07
2023-10-13T21:19:14.402Z,8.97
2023-10-13T21:21:42.368Z,6.07
2023-10-13T21:24:11.755Z,6.30
2023-10-13T21:26:39.839Z,8.43
2023-10-13T21:29:08.960Z,7.33
2023-10-13T21:31:38.315Z,9.30
2023-10-13T21:34:08.299Z,8.53
2023-10-13T21:36:39.809Z,7.70
2023-10-13T21:39:11.874Z,8.17
2023-10-13T21:41:39.950Z,7.27
2023-10-13T21:44:08.184Z,7.60
2023-10-13T21:46:37.059Z,7.00
2023-10-13T21:49:07.671Z,5.03
2023-10-13T21:51:37.137Z,7.30
2023-10-13T21:54:08.508Z,4.93
2023-10-13T21:56:37.036Z,9.33
2023-10-13T21:59:04.907Z,4.60
2023-10-13T22:01:45.721Z,9.23
2023-10-13T22:04:21.778Z,8.73
2023-10-13T22:06:51.226Z,10.33
2023-10-13T22:09:19.651Z,7.10
2023-10-13T22:11:49.476Z,8.73
2023-10-13T22:14:18.897Z,7.90
2023-10-13T22:16:46.675Z,5.93
2023-10-13T22:19:14.865Z,11.23
2023-10-13T22:21:42.645Z,8.40
2023-10-13T22:24:14.566Z,6.30
2023-10-13T22:26:44.388Z,7.90
2023-10-13T22:29:12.486Z,6.83
2023-10-13T22:31:41.178Z,6.47
2023-10-13T22:34:09.883Z,10.40
2023-10-13T22:36:38.550Z,10.50
2023-10-13T22:39:16.252Z,6.73
2023-10-13T22:41:45.974Z,7.57
2023-10-13T22:44:19.815Z,11.97
2023-10-13T22:46:48.443Z,7.23
2023-10-13T22:49:16.523Z,4.87
2023-10-13T22:51:44.555Z,6.83
2023-10-13T22:54:16.522Z,5.60
2023-10-13T22:56:45.497Z,5.87
2023-10-13T22:59:13.434Z,9.03
2023-10-13T23:01:44.123Z,7.90
2023-10-13T23:04:15.636Z,11.43
2023-10-13T23:06:47.131Z,7.77
2023-10-13T23:09:25.902Z,10.93
2023-10-13T23:12:03.883Z,10.53
2023-10-13T23:14:33.591Z,14.53
2023-10-13T23:17:01.661Z,9.63
2023-10-13T23:19:29.376Z,9.97
2023-10-13T23:21:57.096Z,9.40
2023-10-13T23:24:24.792Z,6.23
2023-10-13T23:26:52.434Z,19.03
2023-10-13T23:29:21.608Z,9.13
2023-10-13T23:31:49.677Z,7.13
2023-10-13T23:34:17.887Z,9.93
2023-10-13T23:36:45.776Z,13.20
2023-10-13T23:39:13.448Z,8.80
2023-10-13T23:41:42.836Z,11.63
2023-10-13T23:44:15.221Z,10.53
2023-10-13T23:46:45.743Z,10.90
2023-10-13T23:49:16.688Z,9.77
2023-10-13T23:51:54.265Z,11.93
2023-10-13T23:54:22.303Z,12.70
2023-10-13T23:56:50.083Z,8.80
2023-10-13T23:59:27.873Z,9.90
